createdAt,value
2022-10-17T00:00:07.113Z,0.00
2022-10-17T00:01:07.194Z,0.00
2022-10-17T00:02:07.085Z,0.00
2022-10-17T00:03:07.072Z,0.00
2022-10-17T00:04:07.070Z,0.00
2022-10-17T00:05:07.084Z,0.00
2022-10-17T00:06:07.076Z,0.00
2022-10-17T00:07:07.025Z,0.00
2022-10-17T00:08:07.025Z,0.00
2022-10-17T00:09:07.007Z,0.00
2022-10-17T00:10:06.999Z,0.00
2022-10-17T00:11:07.005Z,0.00
2022-10-17T00:12:06.974Z,0.00
2022-10-17T00:13:06.972Z,0.00
2022-10-17T00:14:06.961Z,0.00
2022-10-17T00:15:06.943Z,0.00
2022-10-17T00:16:06.946Z,0.00
2022-10-17T00:17:06.908Z,0.00
2022-10-17T00:18:06.935Z,0.00
2022-10-17T00:19:06.885Z,0.00
2022-10-17T00:20:06.874Z,0.00
2022-10-17T00:21:06.877Z,0.00
2022-10-17T00:22:06.860Z,0.00
2022-10-17T00:23:06.840Z,0.00
2022-10-17T00:24:06.828Z,0.00
2022-10-17T00:25:06.807Z,0.00
2022-10-17T00:26:06.818Z,0.00
2022-10-17T00:27:06.790Z,0.00
2022-10-17T00:28:06.779Z,0.00
2022-10-17T00:29:06.809Z,0.00
2022-10-17T00:30:06.757Z,0.00
2022-10-17T00:31:06.753Z,0.00
2022-10-17T00:32:06.734Z,0.00
2022-10-17T00:33:06.718Z,0.00
2022-10-17T00:34:06.720Z,0.00
2022-10-17T00:35:06.694Z,0.00
2022-10-17T00:36:06.717Z,0.00
2022-10-17T00:37:06.668Z,0.00
2022-10-17T00:38:06.658Z,0.00
2022-10-17T00:39:06.645Z,0.00
2022-10-17T00:40:06.627Z,0.00
2022-10-17T00:41:06.624Z,0.00
2022-10-17T00:42:06.630Z,0.00
2022-10-17T00:43:06.604Z,0.00
2022-10-17T00:44:06.590Z,0.00
2022-10-17T00:45:06.579Z,0.00
2022-10-17T00:46:06.572Z,0.00
2022-10-17T00:47:06.549Z,0.00
2022-10-17T00:48:06.562Z,0.00
2022-10-17T00:49:06.532Z,0.00
2022-10-17T00:50:06.523Z,0.00
2022-10-17T00:51:06.506Z,0.00
2022-10-17T00:52:06.493Z,0.00
2022-10-17T00:53:06.512Z,0.00
2022-10-17T00:54:06.474Z,0.00
2022-10-17T00:55:06.456Z,0.00
2022-10-17T00:56:06.454Z,0.00
2022-10-17T00:57:06.441Z,0.00
2022-10-17T00:58:06.424Z,0.00
2022-10-17T01:00:06.400Z,0.00
2022-10-17T01:01:06.409Z,0.00
2022-10-17T01:02:06.382Z,0.00
2022-10-17T01:03:06.364Z,0.00
2022-10-17T01:04:06.373Z,0.00
2022-10-17T01:05:06.342Z,0.00
2022-10-17T01:06:06.333Z,0.00
2022-10-17T01:07:06.315Z,0.00
2022-10-17T01:08:06.307Z,0.00
2022-10-17T01:09:06.333Z,0.00
2022-10-17T01:10:06.305Z,0.00
2022-10-17T01:11:06.273Z,0.00
2022-10-17T01:12:06.269Z,0.00
2022-10-17T01:13:06.243Z,0.00
2022-10-17T01:14:06.229Z,0.00
2022-10-17T01:15:06.227Z,0.00
2022-10-17T01:16:06.232Z,0.00
2022-10-17T01:17:06.195Z,0.00
2022-10-17T01:18:06.193Z,0.00
2022-10-17T01:19:06.182Z,0.00
2022-10-17T01:20:06.178Z,0.00
2022-10-17T01:21:06.159Z,0.00
2022-10-17T01:22:06.166Z,0.00
2022-10-17T01:23:06.140Z,0.00
2022-10-17T01:24:06.123Z,0.00
2022-10-17T01:25:06.145Z,0.00
2022-10-17T01:26:06.102Z,0.00
2022-10-17T01:27:06.140Z,0.00
2022-10-17T01:28:06.075Z,0.00
2022-10-17T01:29:06.058Z,0.00
2022-10-17T01:30:06.057Z,0.00
2022-10-17T01:31:06.036Z,0.00
2022-10-17T01:32:06.045Z,0.00
2022-10-17T01:33:06.016Z,0.00
2022-10-17T01:34:06.010Z,0.00
2022-10-17T01:35:06.000Z,0.00
2022-10-17T01:36:06.170Z,0.00
2022-10-17T01:37:05.985Z,0.00
2022-10-17T01:38:05.965Z,0.00
2022-10-17T01:39:05.946Z,0.00
2022-10-17T01:40:05.946Z,0.00
2022-10-17T01:41:05.921Z,0.00
2022-10-17T01:42:05.909Z,0.00
2022-10-17T01:43:05.919Z,0.00
2022-10-17T01:44:05.896Z,0.00
2022-10-17T01:45:05.868Z,0.00
2022-10-17T01:46:05.859Z,0.00
2022-10-17T01:47:05.850Z,0.00
2022-10-17T01:48:05.856Z,0.00
2022-10-17T01:49:05.832Z,0.00
2022-10-17T01:50:05.822Z,0.00
2022-10-17T01:51:05.801Z,0.00
2022-10-17T01:52:05.804Z,0.00
2022-10-17T01:53:05.791Z,0.00
2022-10-17T01:54:05.765Z,0.00
2022-10-17T01:55:05.762Z,0.00
2022-10-17T01:56:05.750Z,0.00
2022-10-17T01:57:05.740Z,0.00
2022-10-17T01:58:05.743Z,0.00
2022-10-17T01:59:05.713Z,0.00
2022-10-17T02:00:05.699Z,0.00
2022-10-17T02:01:05.767Z,0.00
2022-10-17T02:02:05.680Z,0.00
2022-10-17T02:03:05.687Z,0.00
2022-10-17T02:04:05.649Z,0.00
2022-10-17T02:05:05.643Z,0.00
2022-10-17T02:06:05.640Z,0.00
2022-10-17T02:07:05.607Z,0.00
2022-10-17T02:08:05.629Z,0.00
2022-10-17T02:09:05.601Z,0.00
2022-10-17T02:10:05.581Z,0.00
2022-10-17T02:11:05.576Z,0.00
2022-10-17T02:12:05.561Z,0.00
2022-10-17T02:13:05.564Z,0.00
2022-10-17T02:14:05.568Z,0.00
2022-10-17T02:15:05.533Z,0.00
2022-10-17T02:16:05.514Z,0.00
2022-10-17T02:17:05.510Z,0.00
2022-10-17T02:18:05.512Z,0.00
2022-10-17T02:19:05.479Z,0.00
2022-10-17T02:20:05.479Z,0.00
2022-10-17T02:21:05.455Z,0.00
2022-10-17T02:22:05.452Z,0.00
2022-10-17T02:23:05.473Z,0.00
2022-10-17T02:24:05.434Z,0.00
2022-10-17T02:25:05.418Z,0.00
2022-10-17T02:26:05.405Z,0.00
2022-10-17T02:27:05.385Z,0.00
2022-10-17T02:28:05.372Z,0.00
2022-10-17T02:29:05.409Z,0.00
2022-10-17T02:30:05.356Z,0.00
2022-10-17T02:31:05.342Z,0.00
2022-10-17T02:32:05.327Z,0.00
2022-10-17T02:33:05.327Z,0.00
2022-10-17T02:34:05.306Z,0.00
2022-10-17T02:35:05.315Z,0.00
2022-10-17T02:36:05.289Z,0.00
2022-10-17T02:37:05.275Z,0.00
2022-10-17T02:38:05.254Z,0.00
2022-10-17T02:39:05.254Z,0.00
2022-10-17T02:40:05.256Z,0.00
2022-10-17T02:41:05.229Z,0.00
2022-10-17T02:42:05.217Z,0.00
2022-10-17T02:43:05.204Z,0.00
2022-10-17T02:44:05.190Z,0.00
2022-10-17T02:45:05.196Z,0.00
2022-10-17T02:46:05.165Z,0.00
2022-10-17T02:47:05.155Z,0.00
2022-10-17T02:48:05.143Z,0.00
2022-10-17T02:49:05.139Z,0.00
2022-10-17T02:50:05.136Z,0.00
2022-10-17T02:51:05.111Z,0.00
2022-10-17T02:52:05.100Z,0.00
2022-10-17T02:53:05.090Z,0.00
2022-10-17T02:54:05.069Z,0.00
2022-10-17T02:55:05.084Z,0.00
2022-10-17T02:56:05.048Z,0.00
2022-10-17T02:57:05.037Z,0.00
2022-10-17T02:58:05.030Z,0.00
2022-10-17T02:59:05.021Z,0.00
2022-10-17T03:00:05.091Z,0.00
2022-10-17T03:01:05.073Z,0.00
2022-10-17T03:02:04.981Z,0.00
2022-10-17T03:03:04.979Z,0.00
2022-10-17T03:04:04.967Z,0.00
2022-10-17T03:05:04.942Z,0.00
2022-10-17T03:06:04.950Z,0.00
2022-10-17T03:07:04.930Z,0.00
2022-10-17T03:08:04.910Z,0.00
2022-10-17T03:09:04.907Z,0.00
2022-10-17T03:10:04.891Z,0.00
2022-10-17T03:11:04.906Z,0.00
2022-10-17T03:12:04.868Z,0.00
2022-10-17T03:13:04.861Z,0.00
2022-10-17T03:14:04.840Z,0.00
2022-10-17T03:15:04.835Z,0.00
2022-10-17T03:16:04.816Z,0.00
2022-10-17T03:17:04.818Z,0.00
2022-10-17T03:18:04.798Z,0.00
2022-10-17T03:19:04.793Z,0.00
2022-10-17T03:20:04.774Z,0.00
2022-10-17T03:21:04.772Z,0.00
2022-10-17T03:22:04.775Z,0.00
2022-10-17T03:23:04.763Z,0.00
2022-10-17T03:24:04.731Z,0.00
2022-10-17T03:25:04.724Z,0.00
2022-10-17T03:26:04.709Z,0.00
2022-10-17T03:27:04.712Z,0.00
2022-10-17T03:28:04.685Z,0.00
2022-10-17T03:29:04.690Z,0.00
2022-10-17T03:30:04.668Z,0.00
2022-10-17T03:31:04.654Z,0.00
2022-10-17T03:32:04.635Z,0.00
2022-10-17T03:33:04.644Z,0.00
2022-10-17T03:34:04.613Z,0.00
2022-10-17T03:35:04.620Z,0.00
2022-10-17T03:36:04.604Z,0.00
2022-10-17T03:37:04.584Z,0.00
2022-10-17T03:38:04.573Z,0.00
2022-10-17T03:39:04.578Z,0.00
2022-10-17T03:40:04.544Z,0.00
2022-10-17T03:41:04.544Z,0.00
2022-10-17T03:42:04.527Z,0.00
2022-10-17T03:43:04.514Z,0.00
2022-10-17T03:44:04.517Z,0.00
2022-10-17T03:45:04.519Z,0.00
2022-10-17T03:46:04.510Z,0.00
2022-10-17T03:47:04.479Z,0.00
2022-10-17T03:48:04.458Z,0.00
2022-10-17T03:49:04.457Z,0.00
2022-10-17T03:50:04.437Z,0.00
2022-10-17T03:51:04.425Z,0.00
2022-10-17T03:52:04.411Z,0.00
2022-10-17T03:53:04.397Z,0.00
2022-10-17T03:54:04.397Z,0.00
2022-10-17T03:55:04.375Z,0.00
2022-10-17T03:56:04.376Z,0.00
2022-10-17T03:57:04.356Z,0.00
2022-10-17T03:58:04.338Z,0.00
2022-10-17T03:59:04.349Z,0.00
2022-10-17T04:00:04.321Z,0.00
2022-10-17T04:01:04.351Z,0.00
2022-10-17T04:02:04.291Z,0.00
2022-10-17T04:03:04.287Z,0.00
2022-10-17T04:04:04.289Z,0.00
2022-10-17T04:05:04.266Z,0.00
2022-10-17T04:06:04.247Z,0.00
2022-10-17T04:07:04.243Z,0.00
2022-10-17T04:08:04.943Z,0.00
2022-10-17T04:09:04.230Z,0.00
2022-10-17T04:10:04.202Z,0.00
2022-10-17T04:11:04.191Z,0.00
2022-10-17T04:12:04.180Z,0.00
2022-10-17T04:13:04.165Z,0.00
2022-10-17T04:14:04.170Z,0.00
2022-10-17T04:15:04.150Z,0.00
2022-10-17T04:16:04.127Z,0.00
2022-10-17T04:17:04.120Z,0.00
2022-10-17T04:19:04.114Z,0.00
2022-10-17T04:20:04.098Z,0.00
2022-10-17T04:21:04.079Z,0.00
2022-10-17T04:22:04.074Z,0.00
2022-10-17T04:23:04.074Z,0.00
2022-10-17T04:24:04.052Z,0.00
2022-10-17T04:25:04.031Z,0.00
2022-10-17T04:26:04.026Z,0.00
2022-10-17T04:27:04.019Z,0.00
2022-10-17T04:28:04.000Z,0.00
2022-10-17T04:29:04.025Z,0.00
2022-10-17T04:30:03.975Z,0.00
2022-10-17T04:31:03.962Z,0.00
2022-10-17T04:32:03.950Z,0.00
2022-10-17T04:33:03.930Z,0.00
2022-10-17T04:34:03.944Z,0.00
2022-10-17T04:35:03.914Z,0.00
2022-10-17T04:36:03.902Z,0.00
2022-10-17T04:37:03.901Z,0.00
2022-10-17T04:38:03.875Z,0.00
2022-10-17T04:39:03.939Z,0.00
2022-10-17T04:40:03.856Z,0.00
2022-10-17T04:41:03.843Z,0.00
2022-10-17T04:42:03.833Z,0.00
2022-10-17T04:43:03.816Z,0.00
2022-10-17T04:44:03.825Z,0.00
2022-10-17T04:45:03.801Z,0.00
2022-10-17T04:46:03.788Z,0.00
2022-10-17T04:47:03.775Z,0.00
2022-10-17T04:48:03.757Z,0.00
2022-10-17T04:49:03.786Z,0.00
2022-10-17T04:50:03.736Z,0.00
2022-10-17T04:51:03.727Z,0.00
2022-10-17T04:52:03.714Z,0.00
2022-10-17T04:53:03.713Z,0.00
2022-10-17T04:54:03.694Z,0.00
2022-10-17T04:55:03.706Z,0.00
2022-10-17T04:56:03.665Z,0.00
2022-10-17T04:57:03.662Z,0.00
2022-10-17T04:58:03.646Z,0.00
2022-10-17T04:59:03.639Z,0.00
2022-10-17T05:00:03.724Z,0.00
2022-10-17T05:01:03.714Z,0.00
2022-10-17T05:02:03.601Z,0.00
2022-10-17T05:03:03.597Z,0.00
2022-10-17T05:04:03.580Z,0.00
2022-10-17T05:05:03.566Z,0.00
2022-10-17T05:06:03.567Z,0.00
2022-10-17T05:07:03.577Z,0.00
2022-10-17T05:08:03.539Z,0.00
2022-10-17T05:09:03.518Z,0.00
2022-10-17T05:10:03.512Z,0.00
2022-10-17T05:11:03.508Z,0.00
2022-10-17T05:12:05.467Z,0.00
2022-10-17T05:13:03.473Z,0.00
2022-10-17T05:14:03.459Z,0.00
2022-10-17T05:15:03.460Z,0.00
2022-10-17T05:16:03.441Z,0.00
2022-10-17T05:17:03.449Z,0.00
2022-10-17T05:18:03.416Z,0.00
2022-10-17T05:19:03.409Z,0.00
2022-10-17T05:20:03.399Z,0.00
2022-10-17T05:21:03.385Z,0.00
2022-10-17T05:22:03.397Z,0.00
2022-10-17T05:23:03.359Z,0.00
2022-10-17T05:24:03.351Z,0.00
2022-10-17T05:25:03.326Z,0.00
2022-10-17T05:26:03.322Z,0.00
2022-10-17T05:27:03.339Z,0.00
2022-10-17T05:28:03.303Z,0.00
2022-10-17T05:29:03.370Z,0.00
2022-10-17T05:30:03.283Z,0.00
2022-10-17T05:31:03.268Z,4.00
2022-10-17T05:32:03.271Z,0.00
2022-10-17T05:33:03.250Z,0.00
2022-10-17T05:34:03.235Z,4.00
2022-10-17T05:35:03.219Z,0.00
2022-10-17T05:36:03.201Z,0.00
2022-10-17T05:37:03.215Z,0.00
2022-10-17T05:38:03.184Z,4.00
2022-10-17T05:39:03.182Z,0.00
2022-10-17T05:40:03.171Z,4.00
2022-10-17T05:41:03.159Z,8.00
2022-10-17T05:42:03.150Z,8.00
2022-10-17T05:43:03.131Z,8.00
2022-10-17T05:44:05.455Z,8.00
2022-10-17T05:45:03.104Z,12.00
2022-10-17T05:46:03.095Z,8.00
2022-10-17T05:47:03.103Z,12.00
2022-10-17T05:48:03.066Z,12.00
2022-10-17T05:49:10.657Z,12.00
2022-10-17T05:50:04.044Z,20.00
2022-10-17T05:51:03.042Z,20.00
2022-10-17T05:52:03.036Z,24.00
2022-10-17T05:53:03.023Z,24.00
2022-10-17T05:54:03.004Z,28.00
2022-10-17T05:55:02.995Z,32.00
2022-10-17T05:56:02.973Z,36.00
2022-10-17T05:57:02.983Z,40.00
2022-10-17T05:58:02.966Z,44.00
2022-10-17T05:59:02.938Z,52.00
2022-10-17T06:00:02.933Z,56.00
2022-10-17T06:01:02.916Z,60.00
2022-10-17T06:02:02.976Z,68.00
2022-10-17T06:03:02.913Z,80.00
2022-10-17T06:04:02.877Z,84.00
2022-10-17T06:05:02.873Z,96.00
2022-10-17T06:06:02.863Z,104.00
2022-10-17T06:07:02.853Z,112.00
2022-10-17T06:08:02.825Z,128.00
2022-10-17T06:09:02.835Z,136.00
2022-10-17T06:10:02.807Z,152.00
2022-10-17T06:11:06.060Z,168.00
2022-10-17T06:12:03.785Z,176.00
2022-10-17T06:13:02.780Z,192.00
2022-10-17T06:14:02.786Z,200.00
2022-10-17T06:15:02.748Z,212.00
2022-10-17T06:16:02.742Z,228.00
2022-10-17T06:17:02.731Z,236.00
2022-10-17T06:18:02.716Z,252.00
2022-10-17T06:19:02.706Z,264.00
2022-10-17T06:20:02.707Z,272.00
2022-10-17T06:21:02.683Z,288.00
2022-10-17T06:22:02.680Z,288.00
2022-10-17T06:23:02.667Z,296.00
2022-10-17T06:24:02.658Z,304.00
2022-10-17T06:25:02.654Z,308.00
2022-10-17T06:26:02.631Z,308.00
2022-10-17T06:27:02.613Z,316.00
2022-10-17T06:28:02.599Z,324.00
2022-10-17T06:29:02.622Z,332.00
2022-10-17T06:30:02.607Z,340.00
2022-10-17T06:31:02.566Z,344.00
2022-10-17T06:32:02.564Z,352.00
2022-10-17T06:33:02.547Z,372.00
2022-10-17T06:34:02.531Z,384.00
2022-10-17T06:35:02.540Z,396.00
2022-10-17T06:36:02.507Z,408.00
2022-10-17T06:37:02.544Z,420.00
2022-10-17T06:38:02.495Z,436.00
2022-10-17T06:39:02.480Z,448.00
2022-10-17T06:40:02.495Z,452.00
2022-10-17T06:41:02.443Z,468.00
2022-10-17T06:42:02.434Z,500.00
2022-10-17T06:43:02.430Z,516.00
2022-10-17T06:44:02.413Z,528.00
2022-10-17T06:45:02.418Z,540.00
2022-10-17T06:46:02.407Z,564.00
2022-10-17T06:47:02.396Z,592.00
2022-10-17T06:48:02.373Z,624.00
2022-10-17T06:49:02.362Z,656.00
2022-10-17T06:50:02.342Z,680.00
2022-10-17T06:51:02.364Z,680.00
2022-10-17T06:52:02.335Z,688.00
2022-10-17T06:53:02.315Z,728.00
2022-10-17T06:54:02.310Z,748.00
2022-10-17T06:56:02.278Z,764.00
2022-10-17T06:57:02.339Z,764.00
2022-10-17T06:58:02.256Z,756.00
2022-10-17T06:59:02.232Z,756.00
2022-10-17T07:00:02.233Z,764.00
2022-10-17T07:01:02.334Z,796.00
2022-10-17T07:02:02.228Z,816.00
2022-10-17T07:03:02.197Z,840.00
2022-10-17T07:04:02.183Z,884.00
2022-10-17T07:05:02.169Z,940.00
2022-10-17T07:06:02.157Z,1052.00
2022-10-17T07:07:02.162Z,1288.00
2022-10-17T07:08:02.146Z,1600.00
2022-10-17T07:09:02.117Z,1960.00
2022-10-17T07:10:02.119Z,2464.00
2022-10-17T07:11:02.090Z,3300.00
2022-10-17T07:12:02.084Z,3748.00
2022-10-17T07:13:02.090Z,3984.00
2022-10-17T07:14:02.065Z,3676.00
2022-10-17T07:15:02.044Z,3588.00
2022-10-17T07:16:02.067Z,3448.00
2022-10-17T07:17:02.033Z,3584.00
2022-10-17T07:18:02.031Z,3024.00
2022-10-17T07:19:02.006Z,3868.00
2022-10-17T07:20:01.997Z,3812.00
2022-10-17T07:21:01.987Z,3220.00
2022-10-17T07:22:01.965Z,3784.00
2022-10-17T07:23:01.957Z,3980.00
2022-10-17T07:24:01.966Z,4160.00
2022-10-17T07:25:01.933Z,4144.00
2022-10-17T07:26:01.927Z,3868.00
2022-10-17T07:27:01.909Z,3584.00
2022-10-17T07:28:01.909Z,3124.00
2022-10-17T07:29:02.033Z,2764.00
2022-10-17T07:30:01.873Z,2456.00
2022-10-17T07:31:01.870Z,2240.00
2022-10-17T07:32:01.911Z,2052.00
2022-10-17T07:33:01.852Z,1872.00
2022-10-17T07:34:01.849Z,1888.00
2022-10-17T07:35:01.817Z,1836.00
2022-10-17T07:36:01.813Z,2084.00
2022-10-17T07:37:01.802Z,2468.00
2022-10-17T07:38:01.787Z,2232.00
2022-10-17T07:39:01.781Z,2240.00
2022-10-17T07:40:01.764Z,3068.00
2022-10-17T07:41:01.764Z,3376.00
2022-10-17T07:42:01.741Z,2976.00
2022-10-17T07:43:01.730Z,2936.00
2022-10-17T07:44:01.752Z,2672.00
2022-10-17T07:45:01.701Z,2488.00
2022-10-17T07:46:01.690Z,2228.00
2022-10-17T07:47:01.685Z,1884.00
2022-10-17T07:48:01.669Z,2252.00
2022-10-17T07:49:01.675Z,2620.00
2022-10-17T07:50:01.653Z,2660.00
2022-10-17T07:51:01.653Z,3672.00
2022-10-17T07:52:01.631Z,3780.00
2022-10-17T07:53:01.602Z,3612.00
2022-10-17T07:54:01.630Z,3756.00
2022-10-17T07:55:01.594Z,4804.00
2022-10-17T07:56:01.582Z,4880.00
2022-10-17T07:57:01.571Z,3852.00
2022-10-17T07:58:01.576Z,3060.00
2022-10-17T07:59:03.836Z,4076.00
2022-10-17T08:00:02.536Z,4540.00
2022-10-17T08:02:01.504Z,4660.00
2022-10-17T08:03:01.503Z,5452.00
2022-10-17T08:04:01.484Z,4880.00
2022-10-17T08:05:01.497Z,3912.00
2022-10-17T08:06:01.463Z,2772.00
2022-10-17T08:07:18.257Z,2368.00
2022-10-17T08:08:02.512Z,2768.00
2022-10-17T08:09:01.426Z,2992.00
2022-10-17T08:10:01.500Z,2776.00
2022-10-17T08:11:01.427Z,2580.00
2022-10-17T08:12:01.395Z,2580.00
2022-10-17T08:13:01.379Z,2572.00
2022-10-17T08:14:01.370Z,2804.00
2022-10-17T08:15:01.358Z,2536.00
2022-10-17T08:16:01.361Z,2360.00
2022-10-17T08:17:01.326Z,2012.00
2022-10-17T08:18:01.339Z,1900.00
2022-10-17T08:19:01.363Z,1912.00
2022-10-17T08:20:01.307Z,1788.00
2022-10-17T08:21:01.296Z,1860.00
2022-10-17T08:22:01.268Z,1844.00
2022-10-17T08:23:01.259Z,1844.00
2022-10-17T08:24:01.254Z,1776.00
2022-10-17T08:25:01.234Z,1768.00
2022-10-17T08:26:01.233Z,1812.00
2022-10-17T08:27:01.246Z,1996.00
2022-10-17T08:28:01.277Z,2036.00
2022-10-17T08:29:01.247Z,1948.00
2022-10-17T08:30:01.187Z,1948.00
2022-10-17T08:31:01.161Z,1796.00
2022-10-17T08:32:02.439Z,1900.00
2022-10-17T08:33:01.149Z,1824.00
2022-10-17T08:34:01.144Z,1824.00
2022-10-17T08:35:08.915Z,1792.00
2022-10-17T08:36:01.115Z,1736.00
2022-10-17T08:37:01.130Z,1732.00
2022-10-17T08:38:01.113Z,1672.00
2022-10-17T08:39:01.075Z,1616.00
2022-10-17T08:40:01.075Z,1564.00
2022-10-17T08:41:01.056Z,1584.00
2022-10-17T08:42:01.041Z,1448.00
2022-10-17T08:43:01.049Z,1416.00
2022-10-17T08:44:01.018Z,1288.00
2022-10-17T08:45:01.005Z,1168.00
2022-10-17T08:46:01.015Z,1132.00
2022-10-17T08:47:00.988Z,1112.00
2022-10-17T08:48:00.969Z,1104.00
2022-10-17T08:49:00.966Z,1084.00
2022-10-17T08:50:00.957Z,1128.00
2022-10-17T08:51:00.936Z,1112.00
2022-10-17T08:52:00.914Z,1084.00
2022-10-17T08:53:00.921Z,1108.00
2022-10-17T08:54:00.919Z,1044.00
2022-10-17T08:55:00.881Z,1088.00
2022-10-17T08:56:01.020Z,1116.00
2022-10-17T08:57:00.866Z,1152.00
2022-10-17T08:58:00.849Z,1176.00
2022-10-17T08:59:00.847Z,1208.00
2022-10-17T09:00:00.859Z,1208.00
2022-10-17T09:01:00.813Z,1204.00
2022-10-17T09:02:00.815Z,1196.00
2022-10-17T09:03:00.844Z,1216.00
2022-10-17T09:04:00.790Z,1224.00
2022-10-17T09:05:00.785Z,1212.00
2022-10-17T09:06:00.761Z,1232.00
2022-10-17T09:07:00.751Z,1224.00
2022-10-17T09:08:00.729Z,1200.00
2022-10-17T09:09:00.730Z,1168.00
2022-10-17T09:10:00.720Z,1136.00
2022-10-17T09:11:00.739Z,1132.00
2022-10-17T09:12:00.722Z,1148.00
2022-10-17T09:13:05.358Z,1236.00
2022-10-17T09:14:01.683Z,1268.00
2022-10-17T09:15:00.667Z,1384.00
2022-10-17T09:16:00.662Z,1376.00
2022-10-17T09:17:00.635Z,1444.00
2022-10-17T09:18:00.647Z,1608.00
2022-10-17T09:19:00.704Z,1616.00
2022-10-17T09:20:00.608Z,1676.00
2022-10-17T09:21:00.584Z,1624.00
2022-10-17T09:22:00.594Z,1624.00
2022-10-17T09:23:00.567Z,1624.00
2022-10-17T09:24:09.334Z,1620.00
2022-10-17T09:25:01.536Z,1632.00
2022-10-17T09:26:00.525Z,1624.00
2022-10-17T09:27:00.534Z,1588.00
2022-10-17T09:28:00.509Z,1584.00
2022-10-17T09:29:00.550Z,1324.00
2022-10-17T09:30:00.658Z,1172.00
2022-10-17T09:31:00.471Z,1132.00
2022-10-17T09:32:00.482Z,1032.00
2022-10-17T09:33:00.451Z,1032.00
2022-10-17T09:34:00.439Z,1096.00
2022-10-17T09:35:00.420Z,936.00
2022-10-17T09:36:00.405Z,956.00
2022-10-17T09:37:00.407Z,1280.00
2022-10-17T09:38:00.406Z,916.00
2022-10-17T09:39:00.387Z,940.00
2022-10-17T09:40:00.372Z,972.00
2022-10-17T09:41:00.435Z,1012.00
2022-10-17T09:42:00.346Z,1356.00
2022-10-17T09:43:00.350Z,1400.00
2022-10-17T09:44:00.319Z,1412.00
2022-10-17T09:45:00.308Z,1292.00
2022-10-17T09:46:00.296Z,1100.00
2022-10-17T09:47:00.284Z,916.00
2022-10-17T09:48:01.735Z,880.00
2022-10-17T09:49:00.280Z,884.00
2022-10-17T09:50:00.255Z,900.00
2022-10-17T09:51:14.756Z,908.00
2022-10-17T09:52:01.222Z,912.00
2022-10-17T09:53:00.219Z,952.00
2022-10-17T09:54:00.219Z,988.00
2022-10-17T09:55:00.195Z,1028.00
2022-10-17T09:56:00.183Z,1040.00
2022-10-17T09:57:00.167Z,1080.00
2022-10-17T09:58:00.185Z,1120.00
2022-10-17T09:59:00.157Z,1124.00
2022-10-17T10:00:00.198Z,1136.00
2022-10-17T10:01:00.143Z,1152.00
2022-10-17T10:02:00.119Z,1176.00
2022-10-17T10:03:00.093Z,1176.00
2022-10-17T10:04:00.090Z,1152.00
2022-10-17T10:05:04.208Z,1152.00
2022-10-17T10:06:00.064Z,1152.00
2022-10-17T10:07:00.049Z,1116.00
2022-10-17T10:08:00.033Z,1100.00
2022-10-17T10:09:00.012Z,1100.00
2022-10-17T10:10:00.036Z,1092.00
2022-10-17T10:11:00.003Z,1100.00
2022-10-17T10:12:00.000Z,1100.00
2022-10-17T10:12:59.975Z,1080.00
2022-10-17T10:13:59.971Z,1060.00
2022-10-17T10:14:59.956Z,1032.00
2022-10-17T10:15:59.961Z,968.00
2022-10-17T10:16:59.925Z,928.00
2022-10-17T10:17:59.916Z,888.00
2022-10-17T10:18:59.908Z,880.00
2022-10-17T10:19:59.905Z,848.00
2022-10-17T10:20:59.899Z,972.00
2022-10-17T10:21:59.867Z,972.00
2022-10-17T10:22:59.858Z,1096.00
2022-10-17T10:23:59.881Z,980.00
2022-10-17T10:24:59.835Z,948.00
2022-10-17T10:25:59.848Z,900.00
2022-10-17T10:26:59.808Z,848.00
2022-10-17T10:28:01.378Z,820.00
2022-10-17T10:28:59.913Z,840.00
2022-10-17T10:29:59.776Z,844.00
2022-10-17T10:30:59.759Z,880.00
2022-10-17T10:31:59.769Z,944.00
2022-10-17T10:32:59.735Z,1048.00
2022-10-17T10:33:59.733Z,1076.00
2022-10-17T10:34:59.719Z,1056.00
2022-10-17T10:35:59.715Z,1004.00
2022-10-17T10:36:59.699Z,1016.00
2022-10-17T10:37:59.711Z,1028.00
2022-10-17T10:39:02.422Z,1032.00
2022-10-17T10:40:00.663Z,988.00
2022-10-17T10:40:59.779Z,1024.00
2022-10-17T10:41:59.640Z,1028.00
2022-10-17T10:43:04.864Z,1040.00
2022-10-17T10:44:00.625Z,1024.00
2022-10-17T10:44:59.607Z,988.00
2022-10-17T10:45:59.594Z,996.00
2022-10-17T10:46:59.582Z,1000.00
2022-10-17T10:47:59.592Z,1084.00
2022-10-17T10:48:59.552Z,1120.00
2022-10-17T10:49:59.559Z,1100.00
2022-10-17T10:50:59.534Z,1008.00
2022-10-17T10:51:59.522Z,1004.00
2022-10-17T10:52:59.532Z,944.00
2022-10-17T10:53:59.507Z,916.00
2022-10-17T10:54:59.508Z,880.00
2022-10-17T10:55:59.480Z,848.00
2022-10-17T10:56:59.470Z,840.00
2022-10-17T10:57:59.475Z,832.00
2022-10-17T10:58:59.440Z,836.00
2022-10-17T10:59:59.443Z,836.00
2022-10-17T11:00:59.568Z,868.00
2022-10-17T11:01:59.422Z,900.00
2022-10-17T11:03:01.679Z,944.00
2022-10-17T11:03:59.403Z,964.00
2022-10-17T11:04:59.374Z,984.00
2022-10-17T11:05:59.365Z,988.00
2022-10-17T11:06:59.355Z,976.00
2022-10-17T11:07:59.345Z,956.00
2022-10-17T11:08:59.331Z,932.00
2022-10-17T11:09:59.335Z,888.00
2022-10-17T11:10:59.304Z,868.00
2022-10-17T11:11:59.288Z,864.00
2022-10-17T11:12:59.287Z,880.00
2022-10-17T11:13:59.282Z,888.00
2022-10-17T11:14:59.292Z,876.00
2022-10-17T11:15:59.259Z,852.00
2022-10-17T11:16:59.236Z,852.00
2022-10-17T11:17:59.226Z,868.00
2022-10-17T11:18:59.218Z,884.00
2022-10-17T11:19:59.196Z,904.00
2022-10-17T11:20:59.197Z,940.00
2022-10-17T11:21:59.178Z,964.00
2022-10-17T11:22:59.178Z,980.00
2022-10-17T11:23:59.158Z,968.00
2022-10-17T11:24:59.150Z,936.00
2022-10-17T11:25:59.155Z,916.00
2022-10-17T11:26:59.121Z,884.00
2022-10-17T11:28:04.448Z,876.00
2022-10-17T11:29:00.225Z,908.00
2022-10-17T11:29:59.097Z,944.00
2022-10-17T11:30:59.100Z,968.00
2022-10-17T11:31:59.090Z,988.00
2022-10-17T11:32:59.057Z,996.00
2022-10-17T11:33:59.051Z,996.00
2022-10-17T11:34:59.036Z,1012.00
2022-10-17T11:35:59.073Z,1028.00
2022-10-17T11:36:59.013Z,1040.00
2022-10-17T11:37:58.990Z,1024.00
2022-10-17T11:38:58.980Z,1020.00
2022-10-17T11:39:58.972Z,1056.00
2022-10-17T11:40:58.963Z,1104.00
2022-10-17T11:42:00.879Z,1152.00
2022-10-17T11:42:58.941Z,1104.00
2022-10-17T11:43:58.924Z,1076.00
2022-10-17T11:44:58.926Z,1076.00
2022-10-17T11:45:58.903Z,1136.00
2022-10-17T11:46:58.922Z,1120.00
2022-10-17T11:47:58.881Z,1116.00
2022-10-17T11:48:58.863Z,1096.00
2022-10-17T11:51:59.842Z,1008.00
2022-10-17T11:52:01.617Z,940.00
2022-10-17T11:52:59.020Z,900.00
2022-10-17T11:53:58.813Z,864.00
2022-10-17T11:54:58.809Z,840.00
2022-10-17T11:55:58.796Z,824.00
2022-10-17T11:56:58.784Z,804.00
2022-10-17T11:57:58.791Z,772.00
2022-10-17T11:58:58.764Z,748.00
2022-10-17T11:59:58.746Z,744.00
2022-10-17T12:00:58.734Z,756.00
2022-10-17T12:01:58.718Z,764.00
2022-10-17T12:02:58.727Z,788.00
2022-10-17T12:03:58.736Z,808.00
2022-10-17T12:04:58.688Z,840.00
2022-10-17T12:05:58.686Z,872.00
2022-10-17T12:06:58.662Z,900.00
2022-10-17T12:07:58.654Z,920.00
2022-10-17T12:08:58.667Z,928.00
2022-10-17T12:09:58.815Z,916.00
2022-10-17T12:10:58.619Z,888.00
2022-10-17T12:11:58.610Z,864.00
2022-10-17T12:12:58.602Z,852.00
2022-10-17T12:14:00.055Z,844.00
2022-10-17T12:14:58.571Z,836.00
2022-10-17T12:15:58.549Z,840.00
2022-10-17T12:16:58.548Z,848.00
2022-10-17T12:17:58.534Z,852.00
2022-10-17T12:18:58.521Z,864.00
2022-10-17T12:19:58.522Z,864.00
2022-10-17T12:20:58.502Z,852.00
2022-10-17T12:21:58.482Z,844.00
2022-10-17T12:22:58.491Z,836.00
2022-10-17T12:23:58.459Z,828.00
2022-10-17T12:24:58.469Z,820.00
2022-10-17T12:26:01.682Z,808.00
2022-10-17T12:26:59.431Z,796.00
2022-10-17T12:27:58.422Z,768.00
2022-10-17T12:28:58.445Z,752.00
2022-10-17T12:29:58.397Z,720.00
2022-10-17T12:30:58.403Z,680.00
2022-10-17T12:31:58.371Z,644.00
2022-10-17T12:33:07.142Z,608.00
2022-10-17T12:33:59.335Z,584.00
2022-10-17T12:34:58.343Z,568.00
2022-10-17T12:35:58.359Z,552.00
2022-10-17T12:36:58.320Z,552.00
2022-10-17T12:37:59.324Z,556.00
2022-10-17T12:38:58.295Z,564.00
2022-10-17T12:39:58.280Z,584.00
2022-10-17T12:40:58.284Z,596.00
2022-10-17T12:41:58.256Z,624.00
2022-10-17T12:42:58.238Z,640.00
2022-10-17T12:43:58.232Z,652.00
2022-10-17T12:44:58.219Z,668.00
2022-10-17T12:45:58.223Z,688.00
2022-10-17T12:46:58.201Z,708.00
2022-10-17T12:47:58.194Z,724.00
2022-10-17T12:48:58.180Z,704.00